sensor_id;sensor_type;location;lat;lon;timestamp;P1;durP1;ratioP1;P2;durP2;ratioP2
13090;SDS011;6611;52.604;13.438;2023-07-02T00:02:40;3.20;;;2.17;;
13090;SDS011;6611;52.604;13.438;2023-07-02T00:07:42;1.90;;;1.80;;
13090;SDS011;6611;52.604;13.438;2023-07-02T00:12:44;1.90;;;1.80;;
13090;SDS011;6611;52.604;13.438;2023-07-02T00:17:47;2.40;;;2.20;;
13090;SDS011;6611;52.604;13.438;2023-07-02T00:22:48;3.03;;;2.20;;
13090;SDS011;6611;52.604;13.438;2023-07-02T00:27:50;2.93;;;1.90;;
13090;SDS011;6611;52.604;13.438;2023-07-02T00:32:53;3.27;;;2.27;;
13090;SDS011;6611;52.604;13.438;2023-07-02T00:37:56;3.93;;;2.10;;
13090;SDS011;6611;52.604;13.438;2023-07-02T00:42:57;2.67;;;2.47;;
13090;SDS011;6611;52.604;13.438;2023-07-02T00:48:00;3.97;;;2.73;;
13090;SDS011;6611;52.604;13.438;2023-07-02T00:53:02;4.47;;;2.83;;
13090;SDS011;6611;52.604;13.438;2023-07-02T00:58:03;3.50;;;3.20;;
13090;SDS011;6611;52.604;13.438;2023-07-02T01:03:06;3.53;;;3.17;;
13090;SDS011;6611;52.604;13.438;2023-07-02T01:08:08;3.90;;;3.23;;
13090;SDS011;6611;52.604;13.438;2023-07-02T01:13:12;3.20;;;2.90;;
13090;SDS011;6611;52.604;13.438;2023-07-02T01:18:19;3.73;;;3.30;;
13090;SDS011;6611;52.604;13.438;2023-07-02T01:23:23;4.00;;;3.60;;
13090;SDS011;6611;52.604;13.438;2023-07-02T01:28:25;4.00;;;3.57;;
13090;SDS011;6611;52.604;13.438;2023-07-02T01:33:35;4.90;;;3.60;;
13090;SDS011;6611;52.604;13.438;2023-07-02T01:38:38;4.57;;;3.90;;
13090;SDS011;6611;52.604;13.438;2023-07-02T01:43:40;4.17;;;3.77;;
13090;SDS011;6611;52.604;13.438;2023-07-02T01:48:41;4.13;;;3.73;;
13090;SDS011;6611;52.604;13.438;2023-07-02T01:53:44;4.63;;;3.73;;
13090;SDS011;6611;52.604;13.438;2023-07-02T01:58:46;7.10;;;4.30;;
13090;SDS011;6611;52.604;13.438;2023-07-02T02:03:47;4.60;;;4.20;;
13090;SDS011;6611;52.604;13.438;2023-07-02T02:08:50;5.53;;;4.97;;
13090;SDS011;6611;52.604;13.438;2023-07-02T02:13:52;5.47;;;4.97;;
13090;SDS011;6611;52.604;13.438;2023-07-02T02:18:54;7.27;;;6.00;;
13090;SDS011;6611;52.604;13.438;2023-07-02T02:23:57;6.80;;;5.77;;
13090;SDS011;6611;52.604;13.438;2023-07-02T02:28:59;7.60;;;6.77;;
13090;SDS011;6611;52.604;13.438;2023-07-02T02:34:00;6.27;;;5.67;;
13090;SDS011;6611;52.604;13.438;2023-07-02T02:39:03;6.90;;;6.23;;
13090;SDS011;6611;52.604;13.438;2023-07-02T02:44:05;7.77;;;6.77;;
13090;SDS011;6611;52.604;13.438;2023-07-02T02:49:07;9.03;;;7.13;;
13090;SDS011;6611;52.604;13.438;2023-07-02T02:54:10;6.90;;;6.20;;
13090;SDS011;6611;52.604;13.438;2023-07-02T02:59:12;6.50;;;5.90;;
13090;SDS011;6611;52.604;13.438;2023-07-02T03:04:13;6.90;;;6.27;;
13090;SDS011;6611;52.604;13.438;2023-07-02T03:09:16;7.23;;;5.63;;
13090;SDS011;6611;52.604;13.438;2023-07-02T03:14:18;7.37;;;5.70;;
13090;SDS011;6611;52.604;13.438;2023-07-02T03:19:20;7.77;;;6.00;;
13090;SDS011;6611;52.604;13.438;2023-07-02T03:24:23;6.10;;;5.60;;
13090;SDS011;6611;52.604;13.438;2023-07-02T03:29:24;6.57;;;5.40;;
13090;SDS011;6611;52.604;13.438;2023-07-02T03:34:26;6.67;;;5.67;;
13090;SDS011;6611;52.604;13.438;2023-07-02T03:39:30;9.27;;;5.70;;
13090;SDS011;6611;52.604;13.438;2023-07-02T03:44:32;5.23;;;4.73;;
13090;SDS011;6611;52.604;13.438;2023-07-02T03:49:33;6.07;;;5.33;;
13090;SDS011;6611;52.604;13.438;2023-07-02T03:54:37;6.90;;;5.70;;
13090;SDS011;6611;52.604;13.438;2023-07-02T03:59:38;7.53;;;5.03;;
13090;SDS011;6611;52.604;13.438;2023-07-02T04:04:40;6.13;;;4.63;;
13090;SDS011;6611;52.604;13.438;2023-07-02T04:09:43;4.93;;;4.30;;
13090;SDS011;6611;52.604;13.438;2023-07-02T04:14:44;4.87;;;4.30;;
13090;SDS011;6611;52.604;13.438;2023-07-02T04:19:46;5.93;;;4.50;;
13090;SDS011;6611;52.604;13.438;2023-07-02T04:24:50;6.43;;;4.40;;
13090;SDS011;6611;52.604;13.438;2023-07-02T04:29:52;5.13;;;3.50;;
13090;SDS011;6611;52.604;13.438;2023-07-02T04:34:55;4.73;;;4.17;;
13090;SDS011;6611;52.604;13.438;2023-07-02T04:39:59;7.53;;;4.17;;
13090;SDS011;6611;52.604;13.438;2023-07-02T04:45:01;4.43;;;3.60;;
13090;SDS011;6611;52.604;13.438;2023-07-02T04:50:03;5.17;;;3.93;;
13090;SDS011;6611;52.604;13.438;2023-07-02T04:55:07;4.57;;;3.83;;
13090;SDS011;6611;52.604;13.438;2023-07-02T05:00:10;7.37;;;3.53;;
13090;SDS011;6611;52.604;13.438;2023-07-02T05:05:12;4.47;;;3.70;;
13090;SDS011;6611;52.604;13.438;2023-07-02T05:10:15;4.47;;;3.43;;
13090;SDS011;6611;52.604;13.438;2023-07-02T05:15:17;5.23;;;3.63;;
13090;SDS011;6611;52.604;13.438;2023-07-02T05:20:19;6.80;;;3.47;;
13090;SDS011;6611;52.604;13.438;2023-07-02T05:25:22;3.83;;;3.33;;
13090;SDS011;6611;52.604;13.438;2023-07-02T05:30:23;5.97;;;3.20;;
13090;SDS011;6611;52.604;13.438;2023-07-02T05:35:25;5.47;;;3.10;;
13090;SDS011;6611;52.604;13.438;2023-07-02T05:40:28;6.43;;;3.00;;
13090;SDS011;6611;52.604;13.438;2023-07-02T05:45:31;4.43;;;3.10;;
13090;SDS011;6611;52.604;13.438;2023-07-02T05:50:32;4.60;;;2.90;;
13090;SDS011;6611;52.604;13.438;2023-07-02T05:55:35;7.33;;;2.60;;
13090;SDS011;6611;52.604;13.438;2023-07-02T06:00:37;4.33;;;2.77;;
13090;SDS011;6611;52.604;13.438;2023-07-02T06:05:41;2.73;;;2.30;;
13090;SDS011;6611;52.604;13.438;2023-07-02T06:10:45;2.67;;;2.47;;
13090;SDS011;6611;52.604;13.438;2023-07-02T06:15:48;2.50;;;2.30;;
13090;SDS011;6611;52.604;13.438;2023-07-02T06:20:50;4.40;;;2.23;;
13090;SDS011;6611;52.604;13.438;2023-07-02T06:25:53;2.70;;;2.23;;
13090;SDS011;6611;52.604;13.438;2023-07-02T06:30:59;5.80;;;2.27;;
13090;SDS011;6611;52.604;13.438;2023-07-02T06:36:00;3.00;;;2.47;;
13090;SDS011;6611;52.604;13.438;2023-07-02T06:41:04;4.27;;;2.37;;
13090;SDS011;6611;52.604;13.438;2023-07-02T06:46:06;3.63;;;2.70;;
13090;SDS011;6611;52.604;13.438;2023-07-02T06:51:07;4.00;;;2.20;;
13090;SDS011;6611;52.604;13.438;2023-07-02T06:56:10;2.43;;;1.93;;
13090;SDS011;6611;52.604;13.438;2023-07-02T07:01:12;5.27;;;2.20;;
13090;SDS011;6611;52.604;13.438;2023-07-02T07:06:14;3.90;;;1.63;;
13090;SDS011;6611;52.604;13.438;2023-07-02T07:11:17;3.93;;;1.90;;
13090;SDS011;6611;52.604;13.438;2023-07-02T07:16:18;3.43;;;2.30;;
13090;SDS011;6611;52.604;13.438;2023-07-02T07:21:20;4.17;;;2.07;;
13090;SDS011;6611;52.604;13.438;2023-07-02T07:26:24;4.67;;;2.00;;
13090;SDS011;6611;52.604;13.438;2023-07-02T07:31:26;2.53;;;1.87;;
13090;SDS011;6611;52.604;13.438;2023-07-02T07:36:27;4.30;;;2.43;;
13090;SDS011;6611;52.604;13.438;2023-07-02T07:41:30;5.67;;;2.37;;
13090;SDS011;6611;52.604;13.438;2023-07-02T07:46:32;5.03;;;2.20;;
13090;SDS011;6611;52.604;13.438;2023-07-02T07:51:34;4.57;;;2.60;;
13090;SDS011;6611;52.604;13.438;2023-07-02T07:56:37;2.90;;;2.10;;
13090;SDS011;6611;52.604;13.438;2023-07-02T08:01:39;2.77;;;2.13;;
13090;SDS011;6611;52.604;13.438;2023-07-02T08:06:40;4.53;;;2.27;;
13090;SDS011;6611;52.604;13.438;2023-07-02T08:11:44;4.10;;;2.13;;
13090;SDS011;6611;52.604;13.438;2023-07-02T08:16:45;2.27;;;1.70;;
13090;SDS011;6611;52.604;13.438;2023-07-02T08:21:48;3.20;;;2.17;;
13090;SDS011;6611;52.604;13.438;2023-07-02T08:26:51;3.23;;;2.27;;
13090;SDS011;6611;52.604;13.438;2023-07-02T08:31:52;3.00;;;2.40;;
13090;SDS011;6611;52.604;13.438;2023-07-02T08:36:54;6.13;;;2.33;;
13090;SDS011;6611;52.604;13.438;2023-07-02T08:41:57;2.80;;;2.30;;
13090;SDS011;6611;52.604;13.438;2023-07-02T08:46:59;3.20;;;2.10;;
13090;SDS011;6611;52.604;13.438;2023-07-02T08:52:01;3.17;;;2.60;;
13090;SDS011;6611;52.604;13.438;2023-07-02T08:57:05;3.27;;;2.33;;
13090;SDS011;6611;52.604;13.438;2023-07-02T09:02:07;4.43;;;2.57;;
13090;SDS011;6611;52.604;13.438;2023-07-02T09:07:09;4.03;;;2.60;;
13090;SDS011;6611;52.604;13.438;2023-07-02T09:12:22;4.30;;;2.90;;
13090;SDS011;6611;52.604;13.438;2023-07-02T09:17:28;7.33;;;2.93;;
13090;SDS011;6611;52.604;13.438;2023-07-02T09:22:31;4.73;;;3.23;;
13090;SDS011;6611;52.604;13.438;2023-07-02T09:27:34;4.73;;;2.77;;
13090;SDS011;6611;52.604;13.438;2023-07-02T09:32:37;5.50;;;2.70;;
13090;SDS011;6611;52.604;13.438;2023-07-02T09:37:39;4.80;;;2.47;;
13090;SDS011;6611;52.604;13.438;2023-07-02T09:42:45;4.80;;;2.67;;
13090;SDS011;6611;52.604;13.438;2023-07-02T09:47:52;6.30;;;3.03;;
13090;SDS011;6611;52.604;13.438;2023-07-02T09:52:58;5.00;;;3.40;;
13090;SDS011;6611;52.604;13.438;2023-07-02T09:58:01;7.30;;;3.60;;
13090;SDS011;6611;52.604;13.438;2023-07-02T10:03:03;7.83;;;4.03;;
13090;SDS011;6611;52.604;13.438;2023-07-02T10:08:11;7.57;;;3.63;;
13090;SDS011;6611;52.604;13.438;2023-07-02T10:13:16;6.80;;;3.60;;
13090;SDS011;6611;52.604;13.438;2023-07-02T10:18:28;6.77;;;4.03;;
13090;SDS011;6611;52.604;13.438;2023-07-02T10:23:32;7.27;;;3.87;;
13090;SDS011;6611;52.604;13.438;2023-07-02T10:28:36;8.23;;;4.17;;
13090;SDS011;6611;52.604;13.438;2023-07-02T10:33:42;6.40;;;3.70;;
13090;SDS011;6611;52.604;13.438;2023-07-02T10:38:44;8.43;;;3.93;;
13090;SDS011;6611;52.604;13.438;2023-07-02T10:43:47;5.93;;;3.80;;
13090;SDS011;6611;52.604;13.438;2023-07-02T10:48:52;7.50;;;3.33;;
13090;SDS011;6611;52.604;13.438;2023-07-02T10:53:58;7.40;;;3.83;;
13090;SDS011;6611;52.604;13.438;2023-07-02T10:59:01;7.07;;;3.77;;
13090;SDS011;6611;52.604;13.438;2023-07-02T11:04:04;6.07;;;3.77;;
13090;SDS011;6611;52.604;13.438;2023-07-02T11:09:15;10.47;;;4.00;;
13090;SDS011;6611;52.604;13.438;2023-07-02T11:14:27;6.83;;;4.20;;
13090;SDS011;6611;52.604;13.438;2023-07-02T11:19:29;7.03;;;3.60;;
13090;SDS011;6611;52.604;13.438;2023-07-02T11:24:31;10.60;;;4.37;;
13090;SDS011;6611;52.604;13.438;2023-07-02T11:29:35;9.07;;;4.37;;
13090;SDS011;6611;52.604;13.438;2023-07-02T11:34:37;10.20;;;3.90;;
13090;SDS011;6611;52.604;13.438;2023-07-02T11:39:39;8.17;;;3.70;;
13090;SDS011;6611;52.604;13.438;2023-07-02T11:44:45;8.57;;;4.47;;
13090;SDS011;6611;52.604;13.438;2023-07-02T11:49:47;7.93;;;4.30;;
13090;SDS011;6611;52.604;13.438;2023-07-02T11:54:48;7.87;;;3.90;;
13090;SDS011;6611;52.604;13.438;2023-07-02T11:59:51;8.70;;;4.07;;
13090;SDS011;6611;52.604;13.438;2023-07-02T12:04:53;11.23;;;4.70;;
13090;SDS011;6611;52.604;13.438;2023-07-02T12:09:55;7.93;;;4.17;;
13090;SDS011;6611;52.604;13.438;2023-07-02T12:14:58;8.13;;;3.90;;
13090;SDS011;6611;52.604;13.438;2023-07-02T12:19:59;7.60;;;3.90;;
13090;SDS011;6611;52.604;13.438;2023-07-02T12:25:01;8.23;;;4.43;;
13090;SDS011;6611;52.604;13.438;2023-07-02T12:30:05;9.10;;;4.57;;
13090;SDS011;6611;52.604;13.438;2023-07-02T12:35:08;7.23;;;4.00;;
13090;SDS011;6611;52.604;13.438;2023-07-02T12:40:10;12.17;;;4.63;;
13090;SDS011;6611;52.604;13.438;2023-07-02T12:45:14;10.67;;;4.00;;
13090;SDS011;6611;52.604;13.438;2023-07-02T12:50:15;9.53;;;4.43;;
13090;SDS011;6611;52.604;13.438;2023-07-02T12:55:17;9.70;;;3.90;;
13090;SDS011;6611;52.604;13.438;2023-07-02T13:00:20;7.73;;;4.00;;
13090;SDS011;6611;52.604;13.438;2023-07-02T13:05:22;7.97;;;4.33;;
13090;SDS011;6611;52.604;13.438;2023-07-02T13:10:23;7.77;;;4.23;;
13090;SDS011;6611;52.604;13.438;2023-07-02T13:15:26;7.83;;;4.03;;
13090;SDS011;6611;52.604;13.438;2023-07-02T13:20:29;9.30;;;4.50;;
13090;SDS011;6611;52.604;13.438;2023-07-02T13:25:31;8.37;;;4.27;;
13090;SDS011;6611;52.604;13.438;2023-07-02T13:30:33;6.67;;;4.13;;
13090;SDS011;6611;52.604;13.438;2023-07-02T13:35:35;12.40;;;4.93;;
13090;SDS011;6611;52.604;13.438;2023-07-02T13:40:38;7.10;;;4.43;;
13090;SDS011;6611;52.604;13.438;2023-07-02T13:45:41;8.53;;;4.20;;
13090;SDS011;6611;52.604;13.438;2023-07-02T13:50:42;8.70;;;4.37;;
13090;SDS011;6611;52.604;13.438;2023-07-02T13:55:44;9.53;;;4.67;;
13090;SDS011;6611;52.604;13.438;2023-07-02T14:00:48;10.70;;;4.30;;
13090;SDS011;6611;52.604;13.438;2023-07-02T14:05:49;7.73;;;4.17;;
13090;SDS011;6611;52.604;13.438;2023-07-02T14:10:51;7.73;;;4.40;;
13090;SDS011;6611;52.604;13.438;2023-07-02T14:15:54;7.87;;;4.17;;
13090;SDS011;6611;52.604;13.438;2023-07-02T14:20:56;6.37;;;4.00;;
13090;SDS011;6611;52.604;13.438;2023-07-02T14:25:57;6.93;;;4.17;;
13090;SDS011;6611;52.604;13.438;2023-07-02T14:31:01;7.07;;;4.57;;
13090;SDS011;6611;52.604;13.438;2023-07-02T14:36:04;9.30;;;4.37;;
13090;SDS011;6611;52.604;13.438;2023-07-02T14:41:07;10.17;;;4.87;;
13090;SDS011;6611;52.604;13.438;2023-07-02T14:46:10;8.47;;;4.40;;
13090;SDS011;6611;52.604;13.438;2023-07-02T14:51:12;9.50;;;4.27;;
13090;SDS011;6611;52.604;13.438;2023-07-02T14:56:14;11.27;;;4.33;;
13090;SDS011;6611;52.604;13.438;2023-07-02T15:01:17;9.07;;;3.77;;
13090;SDS011;6611;52.604;13.438;2023-07-02T15:06:18;8.20;;;4.40;;
13090;SDS011;6611;52.604;13.438;2023-07-02T15:11:20;6.17;;;3.70;;
13090;SDS011;6611;52.604;13.438;2023-07-02T15:16:23;9.00;;;3.33;;
13090;SDS011;6611;52.604;13.438;2023-07-02T15:21:25;8.60;;;4.23;;
13090;SDS011;6611;52.604;13.438;2023-07-02T15:26:26;8.03;;;4.57;;
13090;SDS011;6611;52.604;13.438;2023-07-02T15:31:30;13.40;;;4.60;;
13090;SDS011;6611;52.604;13.438;2023-07-02T15:36:31;8.77;;;4.57;;
13090;SDS011;6611;52.604;13.438;2023-07-02T15:41:35;9.63;;;3.93;;
13090;SDS011;6611;52.604;13.438;2023-07-02T15:46:40;7.63;;;4.30;;
13090;SDS011;6611;52.604;13.438;2023-07-02T15:51:42;6.27;;;3.57;;
13090;SDS011;6611;52.604;13.438;2023-07-02T15:56:44;7.20;;;4.07;;
13090;SDS011;6611;52.604;13.438;2023-07-02T16:01:47;7.93;;;3.73;;
13090;SDS011;6611;52.604;13.438;2023-07-02T16:06:49;8.47;;;4.23;;
13090;SDS011;6611;52.604;13.438;2023-07-02T16:11:51;9.63;;;4.00;;
13090;SDS011;6611;52.604;13.438;2023-07-02T16:16:54;7.57;;;3.63;;
13090;SDS011;6611;52.604;13.438;2023-07-02T16:21:55;5.83;;;3.53;;
13090;SDS011;6611;52.604;13.438;2023-07-02T16:26:57;6.87;;;3.20;;
13090;SDS011;6611;52.604;13.438;2023-07-02T16:32:01;8.40;;;3.30;;
13090;SDS011;6611;52.604;13.438;2023-07-02T16:37:03;8.23;;;3.80;;
13090;SDS011;6611;52.604;13.438;2023-07-02T16:42:06;7.07;;;3.47;;
13090;SDS011;6611;52.604;13.438;2023-07-02T16:47:09;6.43;;;3.47;;
13090;SDS011;6611;52.604;13.438;2023-07-02T16:52:11;7.30;;;3.50;;
13090;SDS011;6611;52.604;13.438;2023-07-02T16:57:12;7.37;;;3.37;;
13090;SDS011;6611;52.604;13.438;2023-07-02T17:02:15;5.20;;;3.50;;
13090;SDS011;6611;52.604;13.438;2023-07-02T17:07:17;7.33;;;3.37;;
13090;SDS011;6611;52.604;13.438;2023-07-02T17:12:19;43.83;;;7.90;;
13090;SDS011;6611;52.604;13.438;2023-07-02T17:17:23;9.43;;;3.77;;
13090;SDS011;6611;52.604;13.438;2023-07-02T17:22:28;6.87;;;3.70;;
13090;SDS011;6611;52.604;13.438;2023-07-02T17:27:31;11.67;;;4.00;;
13090;SDS011;6611;52.604;13.438;2023-07-02T17:32:34;6.57;;;4.00;;
13090;SDS011;6611;52.604;13.438;2023-07-02T17:37:36;6.23;;;3.33;;
13090;SDS011;6611;52.604;13.438;2023-07-02T17:42:38;6.27;;;3.17;;
13090;SDS011;6611;52.604;13.438;2023-07-02T17:47:41;6.30;;;3.63;;
13090;SDS011;6611;52.604;13.438;2023-07-02T17:52:42;6.07;;;3.13;;
13090;SDS011;6611;52.604;13.438;2023-07-02T17:57:44;9.20;;;3.97;;
13090;SDS011;6611;52.604;13.438;2023-07-02T18:02:47;5.53;;;2.87;;
13090;SDS011;6611;52.604;13.438;2023-07-02T18:07:49;5.83;;;3.43;;
13090;SDS011;6611;52.604;13.438;2023-07-02T18:12:50;7.47;;;3.70;;
13090;SDS011;6611;52.604;13.438;2023-07-02T18:17:53;5.90;;;3.40;;
13090;SDS011;6611;52.604;13.438;2023-07-02T18:22:55;5.77;;;2.90;;
13090;SDS011;6611;52.604;13.438;2023-07-02T18:28:00;5.17;;;2.97;;
13090;SDS011;6611;52.604;13.438;2023-07-02T18:33:05;6.80;;;3.17;;
13090;SDS011;6611;52.604;13.438;2023-07-02T18:38:07;5.20;;;3.07;;
13090;SDS011;6611;52.604;13.438;2023-07-02T18:43:09;8.70;;;3.30;;
13090;SDS011;6611;52.604;13.438;2023-07-02T18:48:13;5.43;;;3.33;;
13090;SDS011;6611;52.604;13.438;2023-07-02T18:53:14;6.47;;;3.20;;
13090;SDS011;6611;52.604;13.438;2023-07-02T18:58:16;7.37;;;3.03;;
13090;SDS011;6611;52.604;13.438;2023-07-02T19:03:19;10.77;;;3.27;;
13090;SDS011;6611;52.604;13.438;2023-07-02T19:08:21;6.73;;;3.23;;
13090;SDS011;6611;52.604;13.438;2023-07-02T19:13:23;7.27;;;3.30;;
13090;SDS011;6611;52.604;13.438;2023-07-02T19:18:26;6.47;;;3.23;;
13090;SDS011;6611;52.604;13.438;2023-07-02T19:23:28;5.83;;;3.23;;
13090;SDS011;6611;52.604;13.438;2023-07-02T19:28:32;7.17;;;3.40;;
13090;SDS011;6611;52.604;13.438;2023-07-02T19:33:35;6.07;;;3.23;;
13090;SDS011;6611;52.604;13.438;2023-07-02T19:38:36;7.27;;;4.07;;
13090;SDS011;6611;52.604;13.438;2023-07-02T19:43:38;7.13;;;3.80;;
13090;SDS011;6611;52.604;13.438;2023-07-02T19:48:41;6.03;;;3.50;;
13090;SDS011;6611;52.604;13.438;2023-07-02T19:53:43;6.63;;;3.73;;
13090;SDS011;6611;52.604;13.438;2023-07-02T19:58:45;6.33;;;3.90;;
13090;SDS011;6611;52.604;13.438;2023-07-02T20:03:48;7.90;;;3.93;;
13090;SDS011;6611;52.604;13.438;2023-07-02T20:08:51;6.27;;;3.63;;
13090;SDS011;6611;52.604;13.438;2023-07-02T20:13:52;8.77;;;3.60;;
13090;SDS011;6611;52.604;13.438;2023-07-02T20:18:55;5.43;;;3.37;;
13090;SDS011;6611;52.604;13.438;2023-07-02T20:23:57;6.57;;;3.70;;
13090;SDS011;6611;52.604;13.438;2023-07-02T20:28:59;6.43;;;3.60;;
13090;SDS011;6611;52.604;13.438;2023-07-02T20:34:02;9.03;;;4.03;;
13090;SDS011;6611;52.604;13.438;2023-07-02T20:39:03;7.27;;;3.33;;
13090;SDS011;6611;52.604;13.438;2023-07-02T20:44:06;7.67;;;3.67;;
13090;SDS011;6611;52.604;13.438;2023-07-02T20:49:09;7.67;;;4.30;;
13090;SDS011;6611;52.604;13.438;2023-07-02T20:54:15;7.00;;;3.90;;
13090;SDS011;6611;52.604;13.438;2023-07-02T20:59:18;7.70;;;4.13;;
13090;SDS011;6611;52.604;13.438;2023-07-02T21:04:21;4.90;;;3.63;;
13090;SDS011;6611;52.604;13.438;2023-07-02T21:09:23;7.00;;;4.27;;
13090;SDS011;6611;52.604;13.438;2023-07-02T21:14:27;6.53;;;4.20;;
13090;SDS011;6611;52.604;13.438;2023-07-02T21:19:30;6.87;;;3.53;;
13090;SDS011;6611;52.604;13.438;2023-07-02T21:24:31;4.87;;;3.13;;
13090;SDS011;6611;52.604;13.438;2023-07-02T21:29:33;6.87;;;3.30;;
13090;SDS011;6611;52.604;13.438;2023-07-02T21:34:36;6.87;;;3.57;;
13090;SDS011;6611;52.604;13.438;2023-07-02T21:39:38;9.20;;;3.83;;
13090;SDS011;6611;52.604;13.438;2023-07-02T21:44:39;6.03;;;3.80;;
13090;SDS011;6611;52.604;13.438;2023-07-02T21:49:42;5.10;;;3.23;;
13090;SDS011;6611;52.604;13.438;2023-07-02T21:54:44;8.67;;;3.97;;
13090;SDS011;6611;52.604;13.438;2023-07-02T21:59:46;5.87;;;3.43;;
13090;SDS011;6611;52.604;13.438;2023-07-02T22:04:49;4.97;;;3.20;;
13090;SDS011;6611;52.604;13.438;2023-07-02T22:09:50;5.00;;;2.90;;
13090;SDS011;6611;52.604;13.438;2023-07-02T22:14:52;5.83;;;3.60;;
13090;SDS011;6611;52.604;13.438;2023-07-02T22:19:57;7.43;;;3.43;;
13090;SDS011;6611;52.604;13.438;2023-07-02T22:25:00;8.60;;;3.70;;
13090;SDS011;6611;52.604;13.438;2023-07-02T22:30:05;7.57;;;3.50;;
13090;SDS011;6611;52.604;13.438;2023-07-02T22:35:09;7.87;;;3.63;;
13090;SDS011;6611;52.604;13.438;2023-07-02T22:40:12;6.13;;;3.10;;
13090;SDS011;6611;52.604;13.438;2023-07-02T22:45:15;6.13;;;3.30;;
13090;SDS011;6611;52.604;13.438;2023-07-02T22:50:19;6.60;;;3.60;;
13090;SDS011;6611;52.604;13.438;2023-07-02T22:55:21;6.40;;;3.60;;
13090;SDS011;6611;52.604;13.438;2023-07-02T23:00:22;5.43;;;3.00;;
13090;SDS011;6611;52.604;13.438;2023-07-02T23:05:26;6.47;;;3.30;;
13090;SDS011;6611;52.604;13.438;2023-07-02T23:10:28;6.27;;;3.30;;
13090;SDS011;6611;52.604;13.438;2023-07-02T23:15:30;4.67;;;3.10;;
13090;SDS011;6611;52.604;13.438;2023-07-02T23:20:33;6.63;;;3.53;;
13090;SDS011;6611;52.604;13.438;2023-07-02T23:25:37;7.87;;;3.83;;
13090;SDS011;6611;52.604;13.438;2023-07-02T23:30:41;6.10;;;3.20;;
13090;SDS011;6611;52.604;13.438;2023-07-02T23:35:44;8.47;;;3.60;;
13090;SDS011;6611;52.604;13.438;2023-07-02T23:40:46;8.07;;;3.70;;
13090;SDS011;6611;52.604;13.438;2023-07-02T23:45:47;6.10;;;3.50;;
13090;SDS011;6611;52.604;13.438;2023-07-02T23:50:50;7.33;;;3.60;;
13090;SDS011;6611;52.604;13.438;2023-07-02T23:55:52;7.00;;;3.40;;
